PKWA/KWA METAR and TAF weather

Enter ICAO airport designator
Station Type Date Time Source
PKWA METAR 2019/08/25 13:40 UTC NOAA

PKWA 251340Z AUTO 08005KT 10SM CLR 28/26 A2981 RMK AO2 T02790260


Station Type Date Time Source
PKWA Decoded METAR 2019/08/25 13:40 UTC NOAA

Station name not available
Aug 25, 2019 - 09:40 AM EDT / 2019.08.25 1340 UTC
Wind: from the E (080 degrees) at 6 MPH (5 KT):0
Visibility: 10 mile(s):0
Sky conditions: clear
Temperature: 82.2 F (27.9 C)
Dew Point: 78.8 F (26.0 C)
Relative Humidity: 89%
Pressure (altimeter): 29.81 in. Hg (1009 hPa)
ob: PKWA 251340Z AUTO 08005KT 10SM CLR 28/26 A2981 RMK AO2 T02790260
cycle: 13

Station Type Date Time Source
PKWA TAF 2019/08/25 12:26 UTC NOAA

TAF PKWA 251121Z 2512/2612 08010KT P6SM VCSH FEW020 SCT120

Example: see airport list